Time;durP1;ratioP1;P1;durP2;ratioP2;P2;SDS_P1;SDS_P2;PMS_P1;PMS_P2;Temp;Humidity;BMP_temperature;BMP_pressure;BME280_temperature;BME280_humidity;BME280_pressure;Samples;Min_cycle;Max_cycle;Signal;HPM_P1;HPM_P2
2022/10/11 00:02:21;;;;;;;15.67;12.73;;;;;;;13.60;100.00;97230.59;5092451;28;20168;-56
2022/10/11 00:04:49;;;;;;;14.60;11.97;;;;;;;13.62;100.00;97235.63;5092577;28;20533;-56
2022/10/11 00:07:18;;;;;;;17.83;14.20;;;;;;;13.71;100.00;97239.47;5079102;28;20203;-58
2022/10/11 00:09:44;;;;;;;19.73;14.50;;;;;;;13.63;100.00;97232.78;5074294;28;20201;-56
2022/10/11 00:12:10;;;;;;;15.30;13.60;;;;;;;13.65;100.00;97233.31;5092561;28;20192;-56
2022/10/11 00:14:36;;;;;;;15.67;13.97;;;;;;;13.67;100.00;97235.72;5092322;28;20697;-57
2022/10/11 00:17:02;;;;;;;15.80;14.23;;;;;;;13.57;100.00;97236.34;5092293;28;20207;-55
2022/10/11 00:19:27;;;;;;;18.73;14.43;;;;;;;13.53;100.00;97240.47;5092784;28;20264;-55
2022/10/11 00:21:53;;;;;;;14.40;13.07;;;;;;;13.49;100.00;97231.44;5086603;28;20594;-55
2022/10/11 00:24:18;;;;;;;15.37;13.87;;;;;;;13.50;100.00;97235.66;5080386;28;20631;-58
2022/10/11 00:26:44;;;;;;;15.60;14.07;;;;;;;13.39;100.00;97233.06;5080722;28;20205;-57
2022/10/11 00:29:11;;;;;;;18.80;16.87;;;;;;;13.30;100.00;97243.16;5072501;28;20193;-56
2022/10/11 00:31:36;;;;;;;14.67;13.37;;;;;;;13.28;100.00;97237.31;5072390;28;20191;-56
2022/10/11 00:34:02;;;;;;;15.53;14.43;;;;;;;13.23;100.00;97238.03;5077417;28;20221;-53
2022/10/11 00:36:27;;;;;;;16.37;14.67;;;;;;;13.17;100.00;97235.50;5081348;28;20212;-54
2022/10/11 00:38:53;;;;;;;16.67;14.13;;;;;;;13.18;100.00;97240.56;5074718;28;20177;-58
2022/10/11 00:41:18;;;;;;;15.10;12.87;;;;;;;13.22;100.00;97246.16;5072612;28;20180;-56
2022/10/11 00:43:44;;;;;;;13.40;12.20;;;;;;;13.23;100.00;97245.91;5072394;28;20166;-57
2022/10/11 00:46:12;;;;;;;13.60;12.20;;;;;;;13.25;100.00;97246.50;5083708;28;20193;-54
2022/10/11 00:48:52;;;;;;;14.07;12.53;;;;;;;13.29;100.00;97242.38;5092112;28;20541;-55
2022/10/11 00:51:23;;;;;;;15.33;13.93;;;;;;;13.27;100.00;97243.63;5076084;28;20179;-59
2022/10/11 00:53:50;;;;;;;17.43;15.80;;;;;;;13.24;100.00;97241.47;5092181;28;20170;-54
2022/10/11 00:56:26;;;;;;;20.23;16.67;;;;;;;13.19;100.00;97241.34;5079387;28;20347;-56
2022/10/11 00:58:54;;;;;;;17.73;16.03;;;;;;;13.15;100.00;97240.22;5072624;28;20533;-59
2022/10/11 01:01:20;;;;;;;19.83;17.83;;;;;;;13.14;100.00;97236.78;5084907;28;20180;-59
2022/10/11 01:03:45;;;;;;;19.70;17.57;;;;;;;13.12;100.00;97238.84;5092031;28;20187;-57
2022/10/11 01:06:10;;;;;;;19.03;17.33;;;;;;;13.13;100.00;97240.44;5081328;28;20205;-58
2022/10/11 01:08:37;;;;;;;21.63;19.73;;;;;;;13.14;100.00;97239.44;5070966;28;20177;-57
2022/10/11 01:11:03;;;;;;;20.87;18.93;;;;;;;13.11;100.00;97242.47;5088185;28;20241;-55
2022/10/11 01:13:46;;;;;;;21.07;18.37;;;;;;;13.15;100.00;97240.22;5088063;28;20164;-55
2022/10/11 01:16:36;;;;;;;19.57;17.37;;;;;;;13.19;100.00;97242.16;5091850;28;20204;-58
2022/10/11 01:19:50;;;;;;;22.33;20.20;;;;;;;13.10;100.00;97240.88;5092086;28;20580;-56
2022/10/11 01:22:31;;;;;;;21.20;19.23;;;;;;;12.98;100.00;97244.56;5081069;28;20195;-54
2022/10/11 01:25:08;;;;;;;22.20;20.27;;;;;;;12.96;100.00;97244.78;5071823;28;20211;-56
2022/10/11 01:27:47;;;;;;;21.47;19.27;;;;;;;12.94;100.00;97241.56;5071965;28;20184;-58
2022/10/11 01:30:33;;;;;;;20.27;18.00;;;;;;;12.86;100.00;97244.56;5072133;28;20570;-56
2022/10/11 01:32:58;;;;;;;16.80;15.13;;;;;;;12.84;100.00;97241.34;5075795;28;20777;-59
2022/10/11 01:35:35;;;;;;;16.77;14.03;;;;;;;12.87;100.00;97249.56;5086389;28;20224;-56
2022/10/11 01:38:07;;;;;;;17.63;15.90;;;;;;;12.82;100.00;97248.66;5091131;28;20578;-54
2022/10/11 01:40:38;;;;;;;25.00;22.37;;;;;;;12.80;100.00;97235.75;5094088;28;20186;-54
2022/10/11 01:43:04;;;;;;;19.67;17.87;;;;;;;12.84;100.00;97242.16;5081604;28;20169;-58
2022/10/11 01:45:32;;;;;;;24.20;21.93;;;;;;;12.89;100.00;97244.09;5086148;28;20261;-56
2022/10/11 01:48:10;;;;;;;20.57;18.60;;;;;;;12.82;100.00;97246.84;5075757;28;20200;-56
2022/10/11 01:50:42;;;;;;;18.50;16.60;;;;;;;12.74;100.00;97241.13;5075419;28;20177;-56
2022/10/11 01:53:30;;;;;;;17.70;15.83;;;;;;;12.76;100.00;97244.34;5081947;28;20286;-56
2022/10/11 01:56:23;;;;;;;22.43;17.60;;;;;;;12.74;100.00;97252.44;5082783;28;20205;-57
2022/10/11 01:59:27;;;;;;;23.60;19.87;;;;;;;12.74;100.00;97244.56;5075597;28;20172;-56
2022/10/11 02:01:58;;;;;;;19.07;17.13;;;;;;;12.77;100.00;97243.28;5083286;28;20541;-58
2022/10/11 02:04:56;;;;;;;34.57;30.10;;;;;;;12.75;100.00;97245.38;5090488;28;20229;-58
2022/10/11 02:07:30;;;;;;;43.17;39.33;;;;;;;12.72;100.00;97246.59;5086953;28;20189;-58
2022/10/11 02:10:31;;;;;;;42.53;38.97;;;;;;;12.58;100.00;97241.81;5087394;28;20199;-54
2022/10/11 02:13:07;;;;;;;43.17;39.87;;;;;;;12.53;100.00;97239.88;5090387;28;20637;-57
2022/10/11 02:15:34;;;;;;;43.23;40.07;;;;;;;12.59;100.00;97240.78;5074685;28;20223;-55
2022/10/11 02:18:03;;;;;;;50.30;46.40;;;;;;;12.56;100.00;97247.28;5074939;28;20638;-59
2022/10/11 02:20:33;;;;;;;48.37;44.53;;;;;;;12.50;100.00;97246.38;5091425;28;20234;-55
2022/10/11 02:23:12;;;;;;;54.67;50.57;;;;;;;12.49;100.00;97242.13;5079390;28;20179;-54
2022/10/11 02:25:37;;;;;;;48.63;44.50;;;;;;;12.48;100.00;97243.16;5094909;28;20200;-58
2022/10/11 02:28:09;;;;;;;57.47;53.20;;;;;;;12.55;100.00;97247.50;5082460;28;20174;-58
2022/10/11 02:30:37;;;;;;;45.90;41.90;;;;;;;12.48;100.00;97240.53;5091598;28;20661;-56
2022/10/11 02:33:06;;;;;;;56.80;52.70;;;;;;;12.50;100.00;97238.47;5092338;28;20232;-56
2022/10/11 02:35:37;;;;;;;35.43;31.67;;;;;;;12.44;100.00;97249.09;5086401;28;20213;-59
2022/10/11 02:38:20;;;;;;;45.27;41.10;;;;;;;12.48;100.00;97250.28;5074973;28;20170;-54
2022/10/11 02:41:02;;;;;;;47.50;43.03;;;;;;;12.42;100.00;97251.97;5087197;28;20177;-57
2022/10/11 02:43:40;;;;;;;44.17;40.47;;;;;;;12.43;100.00;97252.75;5084745;28;20184;-58
2022/10/11 02:46:07;;;;;;;45.27;41.37;;;;;;;12.40;100.00;97254.03;5094296;28;20668;-55
2022/10/11 02:48:34;;;;;;;37.63;33.23;;;;;;;12.42;100.00;97253.81;5091455;28;20173;-54
2022/10/11 02:51:02;;;;;;;44.40;40.00;;;;;;;12.44;100.00;97257.78;5081120;28;20179;-58
2022/10/11 02:53:27;;;;;;;41.10;35.63;;;;;;;12.41;100.00;97263.50;5083818;28;20170;-54
2022/10/11 02:55:54;;;;;;;37.87;32.40;;;;;;;12.44;100.00;97254.34;5088276;28;20227;-58
2022/10/11 02:58:20;;;;;;;32.23;26.80;;;;;;;12.47;100.00;97259.97;5092919;28;20183;-56
2022/10/11 03:00:46;;;;;;;41.93;36.87;;;;;;;12.58;100.00;97257.59;5088501;28;20178;-52
2022/10/11 03:03:11;;;;;;;39.07;34.83;;;;;;;12.52;100.00;97255.88;5082207;28;20619;-57
2022/10/11 03:05:40;;;;;;;39.20;29.07;;;;;;;12.60;100.00;97258.94;5082111;28;20205;-56
2022/10/11 03:08:07;;;;;;;48.37;36.93;;;;;;;12.57;100.00;97254.16;5088776;28;20172;-57
2022/10/11 03:10:33;;;;;;;43.80;38.77;;;;;;;12.57;100.00;97264.69;5093025;28;20180;-54
2022/10/11 03:12:59;;;;;;;40.83;33.30;;;;;;;12.47;100.00;97265.25;5087964;28;20180;-57
2022/10/11 03:15:24;;;;;;;48.40;35.67;;;;;;;12.55;100.00;97271.97;5073713;28;20209;-56
2022/10/11 03:17:49;;;;;;;51.67;46.27;;;;;;;12.46;100.00;97276.78;5073801;28;20184;-57
2022/10/11 03:20:15;;;;;;;48.87;32.07;;;;;;;12.44;100.00;97278.81;5073596;28;20181;-57
2022/10/11 03:22:40;;;;;;;44.40;33.73;;;;;;;12.48;100.00;97276.56;5076943;28;20176;-56
2022/10/11 03:25:06;;;;;;;56.33;45.37;;;;;;;12.51;100.00;97276.09;5093734;28;20197;-54
2022/10/11 03:27:33;;;;;;;54.47;41.90;;;;;;;12.49;100.00;97278.13;5082834;28;20299;-51
2022/10/11 03:29:58;;;;;;;54.93;35.93;;;;;;;12.50;100.00;97277.13;5072878;28;20642;-57
2022/10/11 03:32:24;;;;;;;51.80;34.07;;;;;;;12.49;100.00;97283.41;5093162;28;20191;-57
2022/10/11 03:34:49;;;;;;;49.93;33.90;;;;;;;12.51;100.00;97281.34;5086461;28;20229;-58
2022/10/11 03:37:15;;;;;;;44.30;30.70;;;;;;;12.52;100.00;97284.78;5073690;28;20201;-53
2022/10/11 03:39:40;;;;;;;48.63;30.13;;;;;;;12.58;100.00;97282.06;5073353;28;20586;-54
2022/10/11 03:42:06;;;;;;;50.77;33.00;;;;;;;12.70;100.00;97274.19;5073462;28;20196;-58
2022/10/11 03:44:31;;;;;;;47.03;30.07;;;;;;;12.71;100.00;97279.19;5090149;28;20566;-55
2022/10/11 03:46:57;;;;;;;49.33;32.23;;;;;;;12.67;100.00;97279.88;5078236;28;20288;-55
2022/10/11 03:49:22;;;;;;;45.07;31.47;;;;;;;12.68;100.00;97281.50;5085054;28;20193;-56
2022/10/11 03:51:47;;;;;;;43.77;29.27;;;;;;;12.69;100.00;97283.09;5072673;28;20188;-55
2022/10/11 03:54:13;;;;;;;43.30;30.20;;;;;;;12.69;100.00;97280.47;5089061;28;20184;-56
2022/10/11 03:56:38;;;;;;;48.80;32.67;;;;;;;12.61;100.00;97278.16;5091032;28;20207;-58
2022/10/11 03:59:03;;;;;;;47.43;30.43;;;;;;;12.62;100.00;97285.81;5073752;28;20177;-60
2022/10/11 04:01:29;;;;;;;55.23;33.47;;;;;;;12.68;100.00;97284.94;5084444;28;20176;-59
2022/10/11 04:03:56;;;;;;;54.77;33.07;;;;;;;12.66;100.00;97289.59;5084306;28;20218;-58
2022/10/11 04:06:22;;;;;;;52.50;32.33;;;;;;;12.66;100.00;97286.97;5092756;28;20193;-57
2022/10/11 04:08:47;;;;;;;48.63;38.70;;;;;;;12.69;100.00;97286.53;5092363;28;20242;-58
2022/10/11 04:11:12;;;;;;;47.93;32.07;;;;;;;12.74;100.00;97296.38;5092612;28;20184;-58
2022/10/11 04:13:38;;;;;;;44.97;31.13;;;;;;;12.67;100.00;97306.97;5092652;28;20175;-56
2022/10/11 04:16:04;;;;;;;53.93;33.67;;;;;;;12.73;100.00;97300.03;5092415;28;20216;-57
2022/10/11 04:18:29;;;;;;;55.97;32.97;;;;;;;12.78;100.00;97295.69;5081733;28;20176;-60
2022/10/11 04:20:54;;;;;;;51.63;35.53;;;;;;;12.67;100.00;97296.47;5092356;28;20184;-58
2022/10/11 04:23:20;;;;;;;56.47;34.03;;;;;;;12.66;100.00;97301.94;5092694;28;20177;-58
2022/10/11 04:25:47;;;;;;;52.77;36.97;;;;;;;12.69;100.00;97299.69;5074595;28;20204;-53
2022/10/11 04:28:12;;;;;;;51.83;33.50;;;;;;;12.78;100.00;97298.31;5087815;28;20235;-56
2022/10/11 04:30:37;;;;;;;64.67;33.33;;;;;;;12.83;100.00;97306.31;5072514;28;20253;-53
2022/10/11 04:33:03;;;;;;;64.87;32.00;;;;;;;12.84;100.00;97310.56;5079720;28;20220;-54
2022/10/11 04:35:28;;;;;;;53.87;33.60;;;;;;;12.82;100.00;97304.72;5078713;28;20225;-55
2022/10/11 04:37:54;;;;;;;54.77;34.83;;;;;;;12.83;100.00;97303.69;5087359;28;20260;-54
2022/10/11 04:40:19;;;;;;;54.20;37.67;;;;;;;12.78;100.00;97300.94;5073075;28;20189;-55
2022/10/11 04:42:45;;;;;;;57.67;34.97;;;;;;;12.72;100.00;97311.56;5072532;28;20248;-56
2022/10/11 04:45:10;;;;;;;53.57;34.07;;;;;;;12.72;100.00;97316.81;5072299;28;20205;-52
2022/10/11 04:47:39;;;;;;;52.80;34.73;;;;;;;12.73;100.00;97313.16;5086222;28;20172;-56
2022/10/11 04:50:05;;;;;;;60.00;35.43;;;;;;;12.66;100.00;97310.63;5072088;28;20191;-56
2022/10/11 04:52:30;;;;;;;54.27;31.87;;;;;;;12.71;100.00;97310.75;5070812;28;20172;-55
2022/10/11 04:54:56;;;;;;;54.70;33.03;;;;;;;12.71;100.00;97313.38;5072192;28;20196;-54
2022/10/11 04:57:21;;;;;;;58.87;31.63;;;;;;;12.75;100.00;97319.81;5086557;28;20180;-57
2022/10/11 04:59:46;;;;;;;61.63;32.57;;;;;;;12.79;100.00;97320.97;5090164;28;20177;-54
2022/10/11 05:02:12;;;;;;;48.63;31.87;;;;;;;12.85;100.00;97320.06;5082291;28;20168;-56
2022/10/11 05:04:37;;;;;;;52.37;33.53;;;;;;;12.59;100.00;97320.47;5092191;28;20172;-56
2022/10/11 05:07:03;;;;;;;55.63;32.60;;;;;;;12.68;100.00;97332.25;5091232;28;20290;-56
2022/10/11 05:09:28;;;;;;;57.10;34.03;;;;;;;12.62;100.00;97321.84;5092171;28;20257;-56
2022/10/11 05:11:54;;;;;;;58.87;44.93;;;;;;;12.60;100.00;97329.16;5090143;28;20175;-57
2022/10/11 05:14:19;;;;;;;58.13;37.27;;;;;;;12.62;100.00;97332.34;5086548;28;20201;-58
2022/10/11 05:16:45;;;;;;;50.73;31.97;;;;;;;12.64;100.00;97331.13;5075995;28;20196;-55
2022/10/11 05:19:11;;;;;;;53.73;39.20;;;;;;;12.67;100.00;97335.91;5076181;28;20169;-56
2022/10/11 05:21:36;;;;;;;50.03;33.63;;;;;;;12.67;100.00;97329.84;5075920;28;20254;-57
2022/10/11 05:24:01;;;;;;;58.00;36.27;;;;;;;12.60;100.00;97337.84;5087587;28;20235;-56
2022/10/11 05:26:27;;;;;;;50.87;32.90;;;;;;;12.63;100.00;97337.41;5078977;28;20219;-56
2022/10/11 05:28:53;;;;;;;47.63;33.13;;;;;;;12.74;100.00;97344.50;5095648;28;20550;-56
2022/10/11 05:31:19;;;;;;;50.53;35.67;;;;;;;12.75;100.00;97346.13;5094423;28;20196;-57
2022/10/11 05:33:44;;;;;;;46.50;32.80;;;;;;;12.61;100.00;97351.78;5093035;28;20750;-58
2022/10/11 05:36:10;;;;;;;54.97;34.27;;;;;;;12.59;100.00;97348.59;5094692;28;20220;-56
2022/10/11 05:38:37;;;;;;;53.43;33.33;;;;;;;12.62;100.00;97345.50;5075553;28;20206;-56
2022/10/11 05:41:03;;;;;;;50.57;38.63;;;;;;;12.65;100.00;97352.97;5075709;28;20181;-55
2022/10/11 05:43:29;;;;;;;52.87;32.37;;;;;;;12.78;100.00;97356.19;5075367;28;20178;-56
2022/10/11 05:45:55;;;;;;;46.23;33.30;;;;;;;12.59;100.00;97359.94;5092071;28;20222;-57
2022/10/11 05:48:22;;;;;;;57.73;36.57;;;;;;;12.58;100.00;97357.50;5095187;28;20267;-58
2022/10/11 05:50:48;;;;;;;45.10;34.90;;;;;;;12.55;100.00;97357.94;5088657;28;20266;-58
2022/10/11 05:53:13;;;;;;;66.40;38.47;;;;;;;12.55;100.00;97361.38;5075160;28;20181;-56
2022/10/11 05:55:41;;;;;;;52.80;38.97;;;;;;;12.53;100.00;97362.66;5089427;28;20211;-57
2022/10/11 05:58:09;;;;;;;54.83;36.93;;;;;;;12.56;100.00;97364.81;5095318;28;20173;-54
2022/10/11 06:00:37;;;;;;;43.83;33.43;;;;;;;12.48;100.00;97376.47;5091148;28;20185;-57
2022/10/11 06:03:05;;;;;;;49.83;34.67;;;;;;;12.54;100.00;97370.28;5081547;28;20208;-54
2022/10/11 06:05:30;;;;;;;49.40;34.73;;;;;;;12.53;100.00;97375.78;5081392;28;20201;-58
2022/10/11 06:07:57;;;;;;;48.63;34.97;;;;;;;12.45;100.00;97380.34;5076206;28;20184;-62
2022/10/11 06:10:23;;;;;;;49.23;35.17;;;;;;;12.38;100.00;97382.25;5086097;28;20694;-55
2022/10/11 06:12:49;;;;;;;55.53;36.50;;;;;;;12.55;100.00;97389.50;5095286;28;20181;-52
2022/10/11 06:15:14;;;;;;;50.93;31.40;;;;;;;12.45;100.00;97388.22;5094395;28;20248;-55
2022/10/11 06:17:40;;;;;;;47.57;32.77;;;;;;;12.59;100.00;97391.47;5090208;28;20178;-55
2022/10/11 06:20:06;;;;;;;47.47;31.13;;;;;;;12.63;100.00;97386.56;5074040;28;20219;-58
2022/10/11 06:22:32;;;;;;;45.27;29.33;;;;;;;12.72;100.00;97391.28;5086083;28;20176;-54
2022/10/11 06:24:57;;;;;;;40.00;29.63;;;;;;;12.58;100.00;97394.34;5094606;28;20539;-56
2022/10/11 06:27:23;;;;;;;48.57;29.07;;;;;;;12.57;100.00;97392.72;5092956;28;20556;-51
2022/10/11 06:29:48;;;;;;;41.97;27.90;;;;;;;12.59;100.00;97398.56;5094575;28;20314;-54
2022/10/11 06:32:13;;;;;;;45.13;29.33;;;;;;;12.64;100.00;97402.13;5094516;28;20190;-52
2022/10/11 06:34:39;;;;;;;43.23;30.37;;;;;;;12.59;100.00;97406.47;5080930;28;20241;-53
2022/10/11 06:37:04;;;;;;;45.10;29.93;;;;;;;12.59;100.00;97416.97;5090177;28;20212;-54
2022/10/11 06:39:30;;;;;;;39.43;30.87;;;;;;;12.54;100.00;97408.97;5075247;28;20208;-54
2022/10/11 06:41:55;;;;;;;40.10;28.43;;;;;;;12.62;100.00;97414.69;5084008;28;20259;-51
2022/10/11 06:44:20;;;;;;;43.90;30.37;;;;;;;12.68;100.00;97415.63;5092949;28;20204;-52
2022/10/11 06:46:46;;;;;;;39.47;28.93;;;;;;;12.59;100.00;97423.03;5094670;28;20284;-53
2022/10/11 06:49:11;;;;;;;36.97;28.70;;;;;;;12.70;100.00;97419.66;5087589;28;20177;-52
2022/10/11 06:51:38;;;;;;;46.97;28.23;;;;;;;12.76;100.00;97416.09;5092585;28;20168;-51
2022/10/11 06:54:04;;;;;;;35.80;25.73;;;;;;;12.65;100.00;97424.75;5114802;28;20172;-51
2022/10/11 06:56:30;;;;;;;35.03;27.47;;;;;;;12.64;100.00;97423.16;5098222;28;20204;-55
2022/10/11 06:58:57;;;;;;;38.33;26.97;;;;;;;12.54;100.00;97422.88;5093590;28;20228;-52
2022/10/11 07:01:24;;;;;;;37.23;27.17;;;;;;;12.62;100.00;97427.84;5094108;28;20190;-57
2022/10/11 07:03:53;;;;;;;38.20;26.00;;;;;;;12.64;100.00;97431.06;5093771;28;20245;-56
2022/10/11 07:06:21;;;;;;;39.57;27.03;;;;;;;12.62;100.00;97438.34;5092715;28;20200;-57
2022/10/11 07:08:47;;;;;;;35.07;26.23;;;;;;;12.67;100.00;97448.22;5098072;28;20548;-53
2022/10/11 07:11:19;;;;;;;37.53;27.93;;;;;;;12.63;100.00;97447.06;5085942;28;20168;-55
2022/10/11 07:13:53;;;;;;;35.50;28.30;;;;;;;12.58;100.00;97445.09;5093644;28;20165;-51
2022/10/11 07:16:19;;;;;;;40.43;27.17;;;;;;;12.72;100.00;97449.13;5107294;28;20215;-55
2022/10/11 07:18:46;;;;;;;30.23;27.03;;;;;;;12.79;100.00;97455.13;5113702;28;20257;-54
2022/10/11 07:21:13;;;;;;;35.33;26.10;;;;;;;12.79;100.00;97451.69;5114170;28;20646;-55
2022/10/11 07:23:39;;;;;;;34.20;26.07;;;;;;;12.92;100.00;97451.50;5103099;28;20229;-54
2022/10/11 07:26:06;;;;;;;36.70;28.77;;;;;;;13.07;100.00;97454.50;5093519;28;20287;-57
2022/10/11 07:28:32;;;;;;;37.30;24.57;;;;;;;12.85;100.00;97461.31;5093351;28;20169;-55
2022/10/11 07:30:58;;;;;;;33.40;22.70;;;;;;;12.77;100.00;97462.41;5075184;28;20184;-57
2022/10/11 07:33:23;;;;;;;32.27;24.67;;;;;;;12.82;100.00;97464.38;5085632;28;20259;-56
2022/10/11 07:35:49;;;;;;;31.87;24.10;;;;;;;12.96;100.00;97459.75;5073079;28;20217;-56
2022/10/11 07:38:15;;;;;;;30.73;24.27;;;;;;;13.23;100.00;97460.97;5073381;28;20208;-56
2022/10/11 07:40:43;;;;;;;30.87;22.20;;;;;;;13.03;100.00;97465.72;5078906;28;20174;-57
2022/10/11 07:43:10;;;;;;;28.10;21.93;;;;;;;13.19;100.00;97460.63;5089100;28;20173;-56
2022/10/11 07:45:44;;;;;;;34.27;21.00;;;;;;;13.14;100.00;97459.72;5076647;28;20243;-56
2022/10/11 07:48:10;;;;;;;27.07;20.87;;;;;;;13.07;100.00;97464.22;5076798;28;20660;-55
2022/10/11 07:50:36;;;;;;;30.00;20.40;;;;;;;13.29;100.00;97462.72;5091006;28;20165;-57
2022/10/11 07:53:03;;;;;;;33.87;20.53;;;;;;;13.40;100.00;97469.00;5092623;28;20656;-54
2022/10/11 07:55:32;;;;;;;26.93;20.60;;;;;;;13.39;100.00;97470.84;5078875;28;20201;-55
2022/10/11 07:57:58;;;;;;;28.93;21.00;;;;;;;13.46;100.00;97468.09;5091552;28;20177;-55
2022/10/11 08:00:23;;;;;;;29.50;21.13;;;;;;;13.39;100.00;97467.41;5085780;28;20549;-56
2022/10/11 08:02:49;;;;;;;32.97;22.77;;;;;;;13.44;100.00;97473.59;5073789;28;20189;-55
2022/10/11 08:05:14;;;;;;;30.07;20.87;;;;;;;13.28;100.00;97467.16;5080461;28;20258;-56
2022/10/11 08:07:40;;;;;;;30.87;25.90;;;;;;;13.34;100.00;97473.34;5075561;28;20283;-55
2022/10/11 08:10:06;;;;;;;29.57;26.47;;;;;;;13.36;100.00;97463.41;5091061;28;20584;-56
2022/10/11 08:12:32;;;;;;;29.27;23.93;;;;;;;13.56;100.00;97473.59;5093045;28;20161;-56
2022/10/11 08:14:57;;;;;;;32.97;23.57;;;;;;;13.74;100.00;97473.50;5087587;28;20230;-52
2022/10/11 08:17:23;;;;;;;32.83;23.50;;;;;;;13.68;100.00;97469.97;5092620;28;20183;-53
2022/10/11 08:19:49;;;;;;;30.70;22.50;;;;;;;13.70;100.00;97475.81;5073881;28;20658;-54
2022/10/11 08:22:14;;;;;;;26.90;24.23;;;;;;;13.70;100.00;97470.53;5073804;28;20169;-55
2022/10/11 08:24:40;;;;;;;31.67;24.00;;;;;;;14.05;100.00;97475.75;5072964;28;20241;-53
2022/10/11 08:27:05;;;;;;;29.70;22.17;;;;;;;13.96;100.00;97474.53;5072264;28;20304;-53
2022/10/11 08:29:31;;;;;;;27.70;24.50;;;;;;;13.77;100.00;97480.94;5073215;28;20714;-54
2022/10/11 08:31:57;;;;;;;29.47;22.57;;;;;;;13.92;100.00;97478.66;5084389;28;20180;-56
2022/10/11 08:34:22;;;;;;;31.23;26.83;;;;;;;13.76;100.00;97479.38;5084516;28;20263;-57
2022/10/11 08:36:48;;;;;;;33.97;26.63;;;;;;;13.87;100.00;97481.19;5089183;28;20204;-53
2022/10/11 08:39:13;;;;;;;34.93;31.27;;;;;;;13.76;100.00;97482.00;5073421;28;20175;-53
2022/10/11 08:41:56;;;;;;;28.27;24.13;;;;;;;13.75;100.00;97483.03;5085767;28;20172;-57
2022/10/11 08:44:37;;;;;;;28.83;25.50;;;;;;;13.89;100.00;97480.94;5091609;28;20264;-53
2022/10/11 08:47:25;;;;;;;27.73;21.07;;;;;;;13.66;100.00;97479.91;5074149;28;20193;-54
2022/10/11 08:49:50;;;;;;;29.17;21.53;;;;;;;13.54;100.00;97487.00;5085809;28;20698;-55
2022/10/11 08:52:27;;;;;;;33.77;26.93;;;;;;;13.57;100.00;97483.94;5086804;28;20256;-52
2022/10/11 08:55:06;;;;;;;32.30;28.90;;;;;;;13.50;100.00;97492.94;5079797;28;20195;-55
2022/10/11 08:57:34;;;;;;;31.07;26.10;;;;;;;13.44;100.00;97494.66;5077830;28;20638;-55
2022/10/11 09:00:07;;;;;;;33.63;24.83;;;;;;;13.47;100.00;97490.78;5072781;28;20188;-52
2022/10/11 09:02:45;;;;;;;35.47;24.13;;;;;;;13.31;100.00;97490.44;5071739;28;20203;-51
2022/10/11 09:05:15;;;;;;;36.10;23.03;;;;;;;13.56;100.00;97489.41;5077945;28;20211;-55
2022/10/11 09:07:49;;;;;;;32.50;24.90;;;;;;;13.50;100.00;97491.13;5091213;28;20557;-53
2022/10/11 09:10:49;;;;;;;33.27;25.60;;;;;;;13.50;100.00;97490.31;5089083;28;20806;-53
2022/10/11 09:13:34;;;;;;;30.03;24.63;;;;;;;13.58;100.00;97480.25;5073497;28;20181;-55
2022/10/11 09:16:35;;;;;;;32.77;26.27;;;;;;;13.73;100.00;97479.81;5083729;28;20200;-55
2022/10/11 09:19:30;;;;;;;35.70;32.00;;;;;;;13.83;100.00;97480.03;5091858;28;20210;-52
2022/10/11 09:21:59;;;;;;;36.20;32.37;;;;;;;13.79;100.00;97488.63;5071526;28;20211;-53
2022/10/11 09:24:33;;;;;;;43.37;39.17;;;;;;;13.76;100.00;97489.91;5082141;28;20499;-54
2022/10/11 09:27:22;;;;;;;37.60;32.67;;;;;;;13.67;100.00;97496.53;5089777;28;20220;-53
2022/10/11 09:29:56;;;;;;;33.90;26.50;;;;;;;13.62;100.00;97491.94;5071382;28;20646;-55
2022/10/11 09:32:23;;;;;;;39.13;28.30;;;;;;;13.52;100.00;97490.91;5071721;28;20213;-54
2022/10/11 09:35:00;;;;;;;30.73;26.30;;;;;;;13.47;100.00;97486.31;5081165;28;20606;-55
2022/10/11 09:37:48;;;;;;;32.20;26.27;;;;;;;13.58;100.00;97500.53;5088687;28;20184;-57
2022/10/11 09:40:45;;;;;;;39.70;27.83;;;;;;;13.44;100.00;97489.41;5090734;28;20177;-53
2022/10/11 09:43:11;;;;;;;35.97;27.80;;;;;;;13.27;100.00;97493.72;5084554;28;20303;-52
2022/10/11 09:45:37;;;;;;;40.30;27.10;;;;;;;13.23;100.00;97495.19;5075151;28;20280;-55
2022/10/11 09:48:06;;;;;;;35.87;25.90;;;;;;;13.32;100.00;97488.56;5090310;28;20181;-53
2022/10/11 09:50:32;;;;;;;37.20;27.73;;;;;;;13.40;100.00;97493.53;5088769;28;20217;-56
2022/10/11 09:53:00;;;;;;;36.53;26.47;;;;;;;13.84;100.00;97497.44;5091132;28;20255;-55
2022/10/11 09:55:41;;;;;;;39.53;30.73;;;;;;;13.78;100.00;97497.56;5092667;28;20258;-55
2022/10/11 09:58:24;;;;;;;35.10;28.70;;;;;;;13.68;100.00;97503.41;5092624;28;20652;-54
2022/10/11 10:00:58;;;;;;;37.67;28.23;;;;;;;13.52;100.00;97501.44;5080731;28;20227;-56
2022/10/11 10:03:32;;;;;;;34.13;29.37;;;;;;;13.60;100.00;97507.16;5094908;28;20552;-53
2022/10/11 10:06:27;;;;;;;38.90;33.40;;;;;;;13.68;100.00;97501.56;5082320;28;20225;-55
2022/10/11 10:08:54;;;;;;;34.40;26.93;;;;;;;13.68;100.00;97500.75;5067132;28;20201;-52
2022/10/11 10:11:20;;;;;;;38.63;29.60;;;;;;;13.65;100.00;97503.88;5075098;28;20177;-55
2022/10/11 10:13:51;;;;;;;34.17;25.37;;;;;;;13.64;100.00;97503.06;5073319;28;20222;-52
2022/10/11 10:16:29;;;;;;;35.10;30.07;;;;;;;13.57;100.00;97499.72;5091003;28;20212;-54
2022/10/11 10:19:06;;;;;;;34.70;26.73;;;;;;;13.83;100.00;97503.75;5094120;28;20183;-55
2022/10/11 10:21:54;;;;;;;37.03;33.17;;;;;;;13.96;100.00;97510.63;5094295;28;20208;-53
2022/10/11 10:24:40;;;;;;;44.33;39.93;;;;;;;13.86;100.00;97505.94;5081877;28;20185;-55
2022/10/11 10:27:19;;;;;;;48.90;44.17;;;;;;;13.75;100.00;97504.09;5075454;28;20212;-55
2022/10/11 10:30:06;;;;;;;35.47;29.67;;;;;;;13.89;100.00;97500.19;5089566;28;20185;-51
2022/10/11 10:32:39;;;;;;;47.60;42.30;;;;;;;13.94;100.00;97504.78;5084050;28;20239;-52
2022/10/11 10:35:17;;;;;;;39.87;35.90;;;;;;;13.96;100.00;97497.44;5082188;28;20700;-50
2022/10/11 10:37:49;;;;;;;39.27;35.10;;;;;;;13.93;100.00;97497.91;5093622;28;20176;-52
2022/10/11 10:40:21;;;;;;;42.97;38.43;;;;;;;14.30;100.00;97503.72;5090851;28;20192;-54
2022/10/11 10:42:48;;;;;;;43.63;39.53;;;;;;;14.59;100.00;97505.41;5089303;28;20186;-52
2022/10/11 10:45:16;;;;;;;31.87;27.90;;;;;;;14.84;100.00;97505.88;5085471;28;20192;-54
2022/10/11 10:48:03;;;;;;;33.80;24.57;;;;;;;14.75;100.00;97503.84;5093907;28;20169;-55
2022/10/11 10:50:48;;;;;;;36.33;24.40;;;;;;;14.55;100.00;97505.03;5081970;28;20198;-56
2022/10/11 10:53:25;;;;;;;38.23;34.20;;;;;;;14.67;100.00;97506.84;5074012;28;20681;-55
2022/10/11 10:56:10;;;;;;;43.77;39.27;;;;;;;14.41;100.00;97501.09;5074015;28;20224;-56
2022/10/11 10:58:57;;;;;;;30.97;26.20;;;;;;;14.28;100.00;97498.66;5087321;28;20233;-53
2022/10/11 11:01:26;;;;;;;32.27;26.03;;;;;;;14.69;100.00;97507.44;5074758;28;20166;-50
2022/10/11 11:04:10;;;;;;;44.03;39.73;;;;;;;14.70;100.00;97504.56;5083981;28;20259;-56
2022/10/11 11:06:41;;;;;;;40.77;36.70;;;;;;;14.73;100.00;97503.28;5076536;28;20258;-52
2022/10/11 11:09:34;;;;;;;39.90;33.10;;;;;;;14.67;100.00;97499.75;5074066;28;20622;-56
2022/10/11 11:12:14;;;;;;;38.90;29.63;;;;;;;14.59;100.00;97496.69;5074095;28;20170;-54
2022/10/11 11:14:51;;;;;;;32.67;27.03;;;;;;;14.72;100.00;97494.56;5089195;28;20549;-53
2022/10/11 11:17:49;;;;;;;38.43;28.20;;;;;;;14.85;100.00;97496.94;5093700;28;20175;-55
2022/10/11 11:20:43;;;;;;;27.83;21.73;;;;;;;14.86;100.00;97500.38;5063261;28;20200;-55
2022/10/11 11:23:29;;;;;;;27.07;21.63;;;;;;;15.12;100.00;97501.63;5082712;28;20652;-56
2022/10/11 11:26:01;;;;;;;27.70;24.73;;;;;;;14.87;100.00;97488.78;5074126;28;20291;-56